Castaert Cam Meer informatie Castaert Cam


scouting Meer informatie scouting


Bezoek onze andere website:


U vindt ons ook hier:

Het Weer Aktueel

European Weather Network

Weather Underground

WeatherlinkIP

HAMweather, WeatherForYou, PWS Weather



Het weer levert geen direct gevaar op.    Er zijn geen waarschuwingen afgegeven.

METAR rapporten vliegvelden

   
EHGR - Tilburg
Gewijzigd: 22-01-2018 08:55
Bewolking  
Bewolking  
   Wind: WZW 9.3 km/h
Wind: WZW 9.3 km/h
Temperatuur: 7°C
Voelt als: 5°C
Dauwpunt: 6°C
Vochtigheid: 93%
Barometer: 1006 mb
Bewolking: Bewolking
Zicht: meer dan 10 km
Bewolking: Bewolking 4500 ft
EHGR 220755Z AUTO 25005KT 230V290 9999 OVC045 07/06 Q1006 BLU 25007KT 9999 SCT020 BKN040
EHEH - Eindhoven
Gewijzigd: 22-01-2018 09:08
Bewolking  
Bewolking  
   Wind: WZW 13 km/h
Wind: WZW 13 km/h
Temperatuur: 8°C
Voelt als: 6°C
Dauwpunt: 7°C
Vochtigheid: 93%
Barometer: 1006 mb
Bewolking: Bewolking
Zicht: meer dan 10 km
Bewolking: Bewolking 4600 ft
EHEH 220808Z AUTO 25007KT 220V290 9999 OVC046 08/07 Q1006 BLU 26009KT 9000 BR FEW018 OVC048
EBBL - Olmen
Gewijzigd: 22-01-2018 08:55
Nevel, Grotendeels bewolkt  
Nevel, Grotendeels bewolkt  
   Wind: WZW 11.1 km/h
Wind: WZW 11.1 km/h
Temperatuur: 8°C
Voelt als: 6°C
Dauwpunt: 7°C
Vochtigheid: 93%
Barometer: 1007 mb
Bewolking: Grotendeels bewolkt
Zicht: 4 km
Bewolking: Gedeeltelijk bewolkt 700 ft,
Grotendeels bewolkt 5000 ft
EBBL 220755Z 25006KT 3500 BR SCT007 BKN050 08/07 Q1007 YLO YLO BECMG GRN
EDSB - Lachen
Gewijzigd: 22-01-2018 08:50
Wat regen mogelijk, Bewolking  
Wat regen mogelijk, Bewolking  
   Wind: ZZW 24.1 km/h
Wind: ZZW 24.1 km/h
Temperatuur: 9°C
Voelt als: 6°C
Dauwpunt: 8°C
Vochtigheid: 94%
Barometer: 1009 mb
Bewolking: Bewolking
Zicht: 9 km
Bewolking: Bewolking 1800 ft
EDSB 220750Z 20013KT 9000 -RA OVC018 09/08 Q1009
  

Script ontwikkeld door  Saratoga-weather.org Aangepast voor de template door  Weerstation Leuven